createdAt,value
2023-03-02T00:03:06.362Z,23.50
2023-03-02T00:08:10.208Z,23.40
2023-03-02T00:13:16.593Z,23.40
2023-03-02T00:18:19.427Z,23.50
2023-03-02T00:23:22.309Z,23.50
2023-03-02T00:28:26.785Z,23.50
2023-03-02T00:33:30.553Z,23.40
2023-03-02T00:38:33.408Z,23.50
2023-03-02T00:43:37.554Z,23.50
2023-03-02T00:48:40.563Z,23.50
2023-03-02T00:53:44.890Z,23.40
2023-03-02T00:58:50.216Z,23.50
2023-03-02T01:03:53.777Z,23.50
2023-03-02T01:08:56.593Z,23.40
2023-03-02T01:14:01.660Z,23.50
2023-03-02T01:19:04.661Z,23.50
2023-03-02T01:24:07.816Z,23.40
2023-03-02T01:29:12.050Z,23.50
2023-03-02T01:34:15.038Z,23.40
2023-03-02T01:39:17.917Z,23.50
2023-03-02T01:44:36.772Z,23.40
2023-03-02T01:49:39.966Z,23.40
2023-03-02T01:54:43.995Z,23.40
2023-03-02T01:59:49.274Z,23.40
2023-03-02T02:04:52.582Z,23.30
2023-03-02T02:09:56.705Z,23.40
2023-03-02T02:15:01.493Z,23.40
2023-03-02T02:20:09.935Z,23.40
2023-03-02T02:25:19.762Z,23.40
2023-03-02T02:30:25.506Z,23.40
2023-03-02T02:35:30.380Z,23.40
2023-03-02T02:40:47.464Z,23.40
2023-03-02T02:45:53.878Z,23.30
2023-03-02T02:51:00.445Z,23.30
2023-03-02T02:56:04.282Z,23.40
2023-03-02T03:01:09.141Z,23.40
2023-03-02T03:06:17.390Z,23.40
2023-03-02T03:11:23.410Z,23.30
2023-03-02T03:16:28.603Z,23.30
2023-03-02T03:21:31.451Z,23.30
2023-03-02T03:26:34.484Z,23.40
2023-03-02T03:31:38.857Z,23.40
2023-03-02T03:36:43.297Z,23.50
2023-03-02T03:41:46.452Z,23.50
2023-03-02T03:46:50.647Z,23.40
2023-03-02T03:51:53.695Z,23.40
2023-03-02T03:56:56.534Z,23.40
2023-03-02T04:02:03.332Z,23.40
2023-03-02T04:07:06.146Z,23.30
2023-03-02T04:12:10.016Z,23.40
2023-03-02T04:17:14.213Z,23.30
2023-03-02T04:22:17.567Z,23.30
2023-03-02T04:27:21.040Z,23.40
2023-03-02T04:32:25.324Z,23.30
2023-03-02T04:37:28.234Z,23.40
2023-03-02T04:42:31.164Z,23.40
2023-03-02T04:47:35.732Z,23.40
2023-03-02T04:52:38.565Z,23.40
2023-03-02T04:57:41.473Z,23.50
2023-03-02T05:02:47.291Z,23.40
2023-03-02T05:07:50.714Z,23.40
2023-03-02T05:12:58.088Z,23.40
2023-03-02T05:18:03.153Z,23.40
2023-03-02T05:23:08.783Z,23.50
2023-03-02T05:28:11.720Z,23.40
2023-03-02T05:33:16.659Z,23.40
2023-03-02T05:38:19.505Z,23.50
2023-03-02T05:43:23.477Z,23.40
2023-03-02T05:48:28.050Z,23.30
2023-03-02T05:53:30.876Z,23.40
2023-03-02T05:58:33.699Z,23.40
2023-03-02T06:03:38.512Z,23.40
2023-03-02T06:08:41.298Z,23.30
2023-03-02T06:13:44.394Z,23.40
2023-03-02T06:18:48.572Z,23.40
2023-03-02T06:23:51.987Z,23.40
2023-03-02T06:28:54.843Z,23.50
2023-03-02T06:33:59.043Z,23.40
2023-03-02T06:39:01.889Z,23.60
2023-03-02T06:44:04.893Z,23.50
2023-03-02T06:49:10.391Z,23.40
2023-03-02T06:54:13.706Z,23.50
2023-03-02T06:59:17.281Z,23.60
2023-03-02T07:04:21.646Z,23.50
2023-03-02T07:09:27.032Z,23.50
2023-03-02T07:14:29.883Z,23.50
2023-03-02T07:19:34.049Z,23.60
2023-03-02T07:24:38.318Z,23.50
2023-03-02T07:29:41.700Z,23.60
2023-03-02T07:34:45.864Z,23.60
2023-03-02T07:39:50.104Z,23.60
2023-03-02T07:44:53.800Z,23.60
2023-03-02T07:49:59.035Z,23.60
2023-03-02T07:55:01.880Z,23.60
2023-03-02T08:00:06.304Z,23.70
2023-03-02T08:05:12.776Z,23.70
2023-03-02T08:10:15.891Z,23.80
2023-03-02T08:15:20.065Z,23.80
2023-03-02T08:20:24.241Z,23.90
2023-03-02T08:25:28.070Z,23.90
2023-03-02T08:30:30.932Z,24.00
2023-03-02T08:35:36.416Z,23.90
2023-03-02T08:40:39.322Z,24.00
2023-03-02T08:45:42.269Z,23.90
2023-03-02T08:50:46.498Z,24.00
2023-03-02T08:55:49.298Z,24.00
2023-03-02T09:00:52.325Z,24.00
2023-03-02T09:05:56.496Z,24.10
2023-03-02T09:10:59.361Z,24.00
2023-03-02T09:16:02.426Z,24.10
2023-03-02T09:21:07.223Z,24.00
2023-03-02T09:26:10.566Z,24.10
2023-03-02T09:31:13.999Z,24.10
2023-03-02T09:36:22.107Z,24.10
2023-03-02T09:41:57.477Z,24.20
2023-03-02T09:47:01.974Z,24.20
2023-03-02T09:52:14.842Z,24.20
2023-03-02T09:57:22.065Z,24.30
2023-03-02T10:02:28.784Z,24.20
2023-03-02T10:07:34.146Z,24.30
2023-03-02T10:12:52.398Z,24.20
2023-03-02T10:18:02.340Z,24.20
2023-03-02T10:23:16.091Z,24.30
2023-03-02T10:28:21.200Z,24.40
2023-03-02T10:33:24.269Z,24.40
2023-03-02T10:38:29.550Z,24.40
2023-03-02T10:43:38.256Z,24.40
2023-03-02T10:48:50.070Z,24.40
2023-03-02T10:54:05.772Z,24.40
2023-03-02T10:59:32.049Z,24.50
2023-03-02T11:04:35.039Z,24.50
2023-03-02T11:09:40.201Z,24.50
2023-03-02T11:14:43.656Z,24.50
2023-03-02T11:19:46.585Z,24.40
2023-03-02T11:24:54.036Z,24.50
2023-03-02T11:30:00.372Z,24.50
2023-03-02T11:35:05.961Z,24.60
2023-03-02T11:40:20.525Z,24.60
2023-03-02T11:45:27.138Z,24.50
2023-03-02T11:50:31.091Z,24.50
2023-03-02T11:55:40.619Z,24.60
2023-03-02T12:00:44.019Z,24.50
2023-03-02T12:06:00.637Z,24.60
2023-03-02T12:11:08.080Z,24.50
2023-03-02T12:16:22.618Z,24.50
2023-03-02T12:21:27.066Z,24.60
2023-03-02T12:26:36.234Z,24.50
2023-03-02T12:31:45.772Z,24.60
2023-03-02T12:36:49.224Z,24.60
2023-03-02T12:42:12.463Z,24.60
2023-03-02T12:47:19.245Z,24.70
2023-03-02T12:52:32.049Z,24.70
2023-03-02T12:57:38.651Z,24.70
2023-03-02T13:02:47.091Z,24.60
2023-03-02T13:07:56.800Z,24.70
2023-03-02T13:13:01.685Z,24.70
2023-03-02T13:18:04.741Z,24.60
2023-03-02T13:23:08.470Z,24.70
2023-03-02T13:28:27.591Z,24.80
2023-03-02T13:33:32.090Z,24.80
2023-03-02T13:38:37.653Z,24.80
2023-03-02T13:43:41.979Z,24.90
2023-03-02T13:49:07.491Z,24.80
2023-03-02T13:54:18.151Z,24.90
2023-03-02T13:59:23.213Z,25.00
2023-03-02T14:04:26.190Z,25.00
2023-03-02T14:09:29.046Z,25.00
2023-03-02T14:14:36.496Z,25.00
2023-03-02T14:19:39.387Z,25.00
2023-03-02T14:24:42.574Z,25.10
2023-03-02T14:29:47.699Z,25.00
2023-03-02T14:34:50.578Z,25.10
2023-03-02T14:39:55.580Z,25.10
2023-03-02T14:45:01.706Z,25.20
2023-03-02T14:50:05.554Z,25.10
2023-03-02T14:55:14.456Z,25.20
2023-03-02T15:00:21.193Z,25.20
2023-03-02T15:05:24.066Z,25.30
2023-03-02T15:10:27.001Z,25.30
2023-03-02T15:15:31.194Z,25.30
2023-03-02T15:20:34.071Z,25.50
2023-03-02T15:25:36.896Z,26.20
2023-03-02T15:30:41.709Z,26.80
2023-03-02T15:35:45.125Z,27.00
2023-03-02T15:40:47.958Z,26.70
2023-03-02T15:45:53.240Z,26.10
2023-03-02T15:50:57.559Z,25.90
2023-03-02T15:56:00.680Z,26.00
2023-03-02T16:01:09.403Z,26.00
2023-03-02T16:06:13.428Z,26.00
2023-03-02T16:11:18.925Z,26.10
2023-03-02T16:16:23.475Z,26.00
2023-03-02T16:21:28.435Z,26.10
2023-03-02T16:26:32.349Z,26.10
2023-03-02T16:31:37.849Z,26.00
2023-03-02T16:36:41.975Z,26.00
2023-03-02T16:41:46.114Z,25.90
2023-03-02T16:46:50.555Z,25.80
2023-03-02T16:51:57.675Z,25.70
2023-03-02T16:57:00.509Z,25.60
2023-03-02T17:02:04.650Z,25.40
2023-03-02T17:07:07.523Z,25.30
2023-03-02T17:12:10.435Z,25.20
2023-03-02T17:17:14.631Z,25.20
2023-03-02T17:22:17.558Z,25.10
2023-03-02T17:27:25.312Z,25.10
2023-03-02T17:32:30.108Z,24.90
2023-03-02T17:37:33.206Z,24.80
2023-03-02T17:42:36.349Z,24.80
2023-03-02T17:47:41.345Z,24.80
2023-03-02T17:52:44.219Z,24.70
2023-03-02T17:57:47.070Z,24.70
2023-03-02T18:02:51.486Z,24.70
2023-03-02T18:07:54.623Z,24.70
2023-03-02T18:12:57.672Z,24.60
2023-03-02T18:18:02.464Z,24.60
2023-03-02T18:23:05.331Z,24.60
2023-03-02T18:28:08.315Z,24.60
2023-03-02T18:33:12.474Z,24.50
2023-03-02T18:38:15.411Z,24.50
2023-03-02T18:43:18.202Z,24.40
2023-03-02T18:48:23.527Z,24.40
2023-03-02T18:53:26.885Z,24.40
2023-03-02T18:58:34.133Z,24.30
2023-03-02T19:03:38.643Z,24.30
2023-03-02T19:08:41.567Z,24.30
2023-03-02T19:13:44.376Z,24.30
2023-03-02T19:18:48.662Z,24.20
2023-03-02T19:23:51.763Z,24.20
2023-03-02T19:28:54.933Z,24.20
2023-03-02T19:33:59.441Z,24.20
2023-03-02T19:39:02.244Z,24.20
2023-03-02T19:44:06.041Z,24.10
2023-03-02T19:49:11.232Z,24.10
2023-03-02T19:54:14.194Z,24.10
2023-03-02T19:59:17.084Z,24.10
2023-03-02T20:04:21.278Z,24.10
2023-03-02T20:09:24.227Z,24.10
2023-03-02T20:14:33.720Z,24.10
2023-03-02T20:19:38.315Z,24.10
2023-03-02T20:24:41.485Z,24.10
2023-03-02T20:29:44.580Z,24.10
2023-03-02T20:34:49.071Z,24.00
2023-03-02T20:39:52.936Z,24.10
2023-03-02T20:44:56.723Z,24.10
2023-03-02T20:50:00.992Z,24.00
2023-03-02T20:55:04.782Z,24.00
2023-03-02T21:00:10.546Z,24.00
2023-03-02T21:05:15.463Z,24.00
2023-03-02T21:10:20.747Z,23.90
2023-03-02T21:15:26.918Z,23.90
2023-03-02T21:20:33.594Z,24.00
2023-03-02T21:25:36.432Z,24.00
2023-03-02T21:30:39.325Z,23.90
2023-03-02T21:35:46.401Z,23.90
2023-03-02T21:40:49.431Z,24.00
2023-03-02T21:45:52.438Z,23.90
2023-03-02T21:50:56.588Z,23.90
2023-03-02T21:56:01.754Z,23.90
2023-03-02T22:01:04.880Z,23.90
2023-03-02T22:06:09.079Z,23.80
2023-03-02T22:11:13.942Z,23.80
2023-03-02T22:16:19.323Z,23.90
2023-03-02T22:21:28.734Z,23.90
2023-03-02T22:26:33.306Z,23.90
2023-03-02T22:31:39.764Z,23.90
2023-03-02T22:36:43.985Z,23.90
2023-03-02T22:41:46.867Z,23.90
2023-03-02T22:46:49.853Z,23.80
2023-03-02T22:51:54.860Z,23.90
2023-03-02T22:56:58.273Z,23.90
2023-03-02T23:02:02.274Z,23.90
2023-03-02T23:07:14.273Z,23.90
2023-03-02T23:12:20.222Z,23.80
2023-03-02T23:17:27.710Z,23.80
2023-03-02T23:22:32.721Z,23.80
2023-03-02T23:27:35.831Z,23.90
2023-03-02T23:32:39.038Z,23.90
2023-03-02T23:37:43.590Z,23.80
2023-03-02T23:42:46.507Z,23.80
2023-03-02T23:47:49.352Z,23.70
2023-03-02T23:52:53.514Z,23.80
2023-03-02T23:57:57.416Z,23.70
